createdAt,value
2018-11-11T00:00:47.121Z,99993.81
2018-11-11T00:03:16.132Z,100001.07
2018-11-11T00:05:50.268Z,99998.14
2018-11-11T00:08:24.332Z,99989.47
2018-11-11T00:11:11.208Z,99993.55
2018-11-11T00:13:40.244Z,99994.63
2018-11-11T00:16:15.607Z,99995.88
2018-11-11T00:21:44.598Z,99997.50
2018-11-11T00:24:19.197Z,99995.59
2018-11-11T00:26:54.840Z,100005.85
2018-11-11T00:29:23.717Z,100004.79
2018-11-11T00:31:55.838Z,100001.31
2018-11-11T00:34:25.828Z,99999.23
2018-11-11T00:36:55.081Z,99995.08
2018-11-11T00:39:23.985Z,99993.99
2018-11-11T00:41:52.938Z,99997.20
2018-11-11T00:44:23.001Z,99991.63
2018-11-11T00:46:51.922Z,99991.39
2018-11-11T00:49:20.895Z,99992.95
2018-11-11T00:52:00.842Z,99986.70
2018-11-11T00:54:34.979Z,99991.30
2018-11-11T00:57:14.338Z,99988.31
2018-11-11T00:59:48.677Z,99997.52
2018-11-11T01:02:17.685Z,100000.48
2018-11-11T01:04:46.602Z,100008.03
2018-11-11T01:10:15.719Z,100015.66
2018-11-11T01:12:55.854Z,100014.05
2018-11-11T01:15:34.688Z,100021.06
2018-11-11T01:18:03.556Z,100018.88
2018-11-11T01:20:32.523Z,100021.34
2018-11-11T01:23:12.868Z,100024.33
2018-11-11T01:25:41.795Z,100028.93
2018-11-11T01:28:14.128Z,100030.02
2018-11-11T01:30:43.013Z,100032.23
2018-11-11T01:33:12.957Z,100034.41
2018-11-11T01:35:55.132Z,100031.75
2018-11-11T01:38:37.885Z,100030.41
2018-11-11T01:41:12.310Z,100026.93
2018-11-11T01:43:41.217Z,100018.49
2018-11-11T01:46:10.139Z,100017.68
2018-11-11T01:48:46.644Z,100012.00
2018-11-11T01:51:22.258Z,100006.05
2018-11-11T01:53:59.181Z,100002.29
2018-11-11T01:56:29.286Z,100005.53
2018-11-11T01:58:58.414Z,99993.37
2018-11-11T02:01:29.431Z,99995.20
2018-11-11T02:03:58.312Z,99985.20
2018-11-11T02:06:27.185Z,99979.00
2018-11-11T02:08:56.151Z,99997.31
2018-11-11T02:11:25.394Z,99997.86
2018-11-11T02:13:54.396Z,99999.18
2018-11-11T02:16:23.539Z,100006.97
2018-11-11T02:18:52.478Z,100009.12
2018-11-11T02:21:21.428Z,100013.43
2018-11-11T02:23:54.209Z,100007.74
2018-11-11T02:26:36.804Z,99999.94
2018-11-11T02:29:05.929Z,99998.81
2018-11-11T02:31:39.382Z,100007.23
2018-11-11T02:34:08.266Z,100008.23
2018-11-11T02:36:37.474Z,100008.30
2018-11-11T02:39:07.826Z,100004.22
2018-11-11T02:41:36.743Z,100005.28
2018-11-11T02:52:47.850Z,100002.47
2018-11-11T02:55:37.120Z,100009.53
2018-11-11T02:58:09.870Z,100006.60
2018-11-11T03:00:38.824Z,99998.68
2018-11-11T03:03:07.652Z,99984.44
2018-11-11T03:05:36.575Z,99992.48
2018-11-11T03:11:00.316Z,99985.21
2018-11-11T03:13:29.206Z,99994.40
2018-11-11T03:15:58.090Z,99994.20
2018-11-11T03:18:29.008Z,99996.03
2018-11-11T03:20:57.893Z,99994.69
2018-11-11T03:23:26.745Z,99987.36
2018-11-11T03:25:55.655Z,99987.39
2018-11-11T03:28:24.557Z,99991.76
2018-11-11T03:30:53.508Z,99991.78
2018-11-11T03:33:22.441Z,100000.42
2018-11-11T03:35:51.297Z,99990.34
2018-11-11T03:38:36.099Z,99990.44
2018-11-11T03:41:11.732Z,99990.64
2018-11-11T03:43:40.667Z,99989.26
2018-11-11T03:46:09.739Z,99991.50
2018-11-11T03:48:39.701Z,100001.78
2018-11-11T03:54:03.480Z,100002.06
2018-11-11T03:56:32.416Z,99993.68
2018-11-11T03:59:21.793Z,99992.36
2018-11-11T04:01:50.654Z,100001.55
2018-11-11T04:04:19.536Z,99996.95
2018-11-11T04:06:48.550Z,99997.50
2018-11-11T04:09:29.700Z,99988.59
2018-11-11T04:11:58.572Z,99992.13
2018-11-11T04:14:27.442Z,99988.83
2018-11-11T04:16:56.351Z,99992.64
2018-11-11T04:19:37.578Z,100000.19
2018-11-11T04:27:56.442Z,100001.23
2018-11-11T04:30:25.358Z,99998.55
2018-11-11T04:32:54.265Z,99998.81
2018-11-11T04:35:23.198Z,100006.94
2018-11-11T04:37:56.570Z,100003.44
2018-11-11T04:40:33.832Z,100000.77
2018-11-11T04:43:13.692Z,100010.50
2018-11-11T04:46:01.045Z,100015.36
2018-11-11T04:48:29.958Z,100019.94
2018-11-11T04:53:57.914Z,100015.36
2018-11-11T04:59:32.238Z,100014.29
2018-11-11T05:02:01.120Z,100021.84
2018-11-11T05:04:35.434Z,100021.89
2018-11-11T05:07:04.324Z,100013.02
2018-11-11T05:09:33.297Z,100018.05
2018-11-11T05:12:25.868Z,100016.16
2018-11-11T05:15:12.705Z,100013.43
2018-11-11T05:17:48.926Z,100016.16
2018-11-11T05:20:17.833Z,100015.56
2018-11-11T05:22:51.928Z,100015.06
2018-11-11T05:25:33.296Z,100018.05
2018-11-11T05:28:02.238Z,100011.80
2018-11-11T05:30:31.132Z,100011.80
2018-11-11T05:33:00.001Z,100011.54
2018-11-11T05:38:36.397Z,100014.23
2018-11-11T05:41:05.566Z,100012.89
2018-11-11T05:43:38.260Z,100016.94
2018-11-11T05:49:19.471Z,100017.50
2018-11-11T05:51:48.395Z,100018.88
2018-11-11T05:54:17.299Z,100025.06
2018-11-11T05:56:46.185Z,100019.35
2018-11-11T05:59:15.070Z,100025.58
2018-11-11T06:04:54.294Z,100032.82
2018-11-11T06:07:33.646Z,100034.14
2018-11-11T06:10:07.420Z,100034.59
2018-11-11T06:12:52.815Z,100026.16
2018-11-11T06:15:26.657Z,100029.41
2018-11-11T06:18:06.183Z,100029.60
2018-11-11T06:20:35.091Z,100037.16
2018-11-11T06:23:04.008Z,100032.59
2018-11-11T06:25:32.918Z,100040.05
2018-11-11T06:28:19.967Z,100043.81
2018-11-11T06:30:52.678Z,100039.16
2018-11-11T06:33:21.623Z,100041.25
2018-11-11T06:35:50.571Z,100043.02
2018-11-11T06:38:21.584Z,100044.65
2018-11-11T06:40:53.882Z,100045.48
2018-11-11T06:43:24.818Z,100047.28
2018-11-11T06:46:11.191Z,100046.99
2018-11-11T06:48:40.112Z,100058.61
2018-11-11T06:51:27.596Z,100056.47
2018-11-11T06:54:13.329Z,100045.61
2018-11-11T06:56:50.308Z,100050.87
2018-11-11T06:59:20.613Z,100049.98
2018-11-11T07:01:56.096Z,100059.97
2018-11-11T07:07:36.766Z,100078.88
2018-11-11T07:15:52.891Z,100091.00
2018-11-11T07:18:32.928Z,100096.36
2018-11-11T07:24:07.654Z,100098.35
2018-11-11T07:26:40.056Z,100097.58
2018-11-11T07:29:09.914Z,100104.65
2018-11-11T07:31:39.894Z,100108.50
2018-11-11T07:34:33.208Z,100116.86
2018-11-11T07:37:02.166Z,100114.96
2018-11-11T07:42:27.294Z,100113.94
2018-11-11T07:45:00.120Z,100117.17
2018-11-11T07:47:36.708Z,100125.56
2018-11-11T07:50:17.377Z,100126.20
2018-11-11T07:52:46.544Z,100128.36
2018-11-11T07:55:21.144Z,100125.98
2018-11-11T07:58:03.164Z,100133.34
2018-11-11T08:00:32.152Z,100141.47
2018-11-11T08:03:07.430Z,100143.71
2018-11-11T08:05:39.748Z,100141.33
2018-11-11T08:08:13.538Z,100154.34
2018-11-11T08:10:55.855Z,100146.84
2018-11-11T08:13:30.435Z,100159.00
2018-11-11T08:16:05.267Z,100149.87
2018-11-11T08:18:40.024Z,100159.61
2018-11-11T08:21:11.976Z,100155.92
2018-11-11T08:23:59.500Z,100162.45
2018-11-11T08:26:33.404Z,100160.32
2018-11-11T08:29:04.122Z,100153.31
2018-11-11T08:31:38.594Z,100154.14
2018-11-11T08:34:17.846Z,100159.55
2018-11-11T08:36:52.127Z,100166.84
2018-11-11T08:39:21.161Z,100160.06
2018-11-11T08:41:50.081Z,100171.70
2018-11-11T08:44:29.102Z,100171.39
2018-11-11T08:46:58.058Z,100179.49
2018-11-11T08:49:29.156Z,100181.11
2018-11-11T08:51:59.107Z,100190.84
2018-11-11T08:57:22.362Z,100187.54
2018-11-11T08:59:56.013Z,100201.30
2018-11-11T09:02:36.222Z,100194.49
2018-11-11T09:05:09.765Z,100199.44
2018-11-11T09:07:44.923Z,100198.20
2018-11-11T09:13:26.324Z,100201.05
2018-11-11T09:15:55.290Z,100191.74
2018-11-11T09:18:42.633Z,100190.84
2018-11-11T09:21:14.954Z,100207.98
2018-11-11T09:23:45.926Z,100208.09
2018-11-11T09:26:16.924Z,100211.66
2018-11-11T09:28:52.202Z,100214.64
2018-11-11T09:31:35.838Z,100218.25
2018-11-11T09:34:09.488Z,100220.28
2018-11-11T09:36:42.562Z,100223.33
2018-11-11T09:39:12.540Z,100217.35
2018-11-11T09:44:34.918Z,100206.43
2018-11-11T09:47:04.047Z,100212.91
2018-11-11T09:49:33.037Z,100215.69
2018-11-11T09:52:02.036Z,100217.56
2018-11-11T09:54:31.024Z,100213.53
2018-11-11T09:56:59.894Z,100225.98
2018-11-11T09:59:28.814Z,100223.89
2018-11-11T10:01:57.768Z,100229.34
2018-11-11T10:05:30.490Z,100235.30
2018-11-11T10:08:04.721Z,100238.86
2018-11-11T10:11:39.759Z,100221.59
2018-11-11T10:14:12.851Z,100222.69
2018-11-11T10:17:02.107Z,100217.58
2018-11-11T10:19:35.407Z,100227.13
2018-11-11T10:22:15.285Z,100229.92
2018-11-11T10:24:53.182Z,100228.09
2018-11-11T10:27:27.396Z,100233.00
2018-11-11T10:30:03.296Z,100228.42
2018-11-11T10:32:48.866Z,100229.80
2018-11-11T10:35:35.622Z,100228.17
2018-11-11T10:38:12.598Z,100228.78
2018-11-11T10:40:45.869Z,100227.98
2018-11-11T10:43:36.872Z,100250.21
2018-11-11T10:46:11.430Z,100248.05
2018-11-11T10:48:53.420Z,100246.69
2018-11-11T10:51:22.364Z,100264.01
2018-11-11T10:53:58.363Z,100264.02
2018-11-11T10:56:27.754Z,100284.61
2018-11-11T10:58:57.784Z,100283.47
2018-11-11T11:01:26.750Z,100288.66
2018-11-11T11:03:55.659Z,100294.84
2018-11-11T11:06:34.854Z,100286.48
2018-11-11T11:09:10.661Z,100289.73
2018-11-11T11:17:38.073Z,100298.60
2018-11-11T11:20:07.476Z,100295.41
2018-11-11T11:22:36.399Z,100294.55
2018-11-11T11:25:26.047Z,100299.69
2018-11-11T11:27:54.906Z,100303.75
2018-11-11T11:30:33.913Z,100297.02
2018-11-11T11:33:02.858Z,100310.08
2018-11-11T11:35:31.764Z,100306.61
2018-11-11T11:38:00.789Z,100318.08
2018-11-11T11:40:29.654Z,100315.39
2018-11-11T11:42:58.560Z,100319.72
2018-11-11T11:45:27.551Z,100312.16
2018-11-11T11:47:56.515Z,100317.02
2018-11-11T11:50:25.447Z,100301.27
2018-11-11T11:52:54.500Z,100303.46
2018-11-11T11:55:23.406Z,100308.55
2018-11-11T11:58:07.209Z,100311.55
2018-11-11T12:00:36.022Z,100298.56
2018-11-11T12:03:04.931Z,100296.41
2018-11-11T12:05:50.111Z,100299.35
2018-11-11T12:08:19.105Z,100309.12
2018-11-11T12:10:59.991Z,100309.34
2018-11-11T12:13:28.867Z,100319.39
2018-11-11T12:15:57.984Z,100302.34
2018-11-11T12:18:26.884Z,100306.45
2018-11-11T12:20:55.734Z,100307.31
2018-11-11T12:23:24.706Z,100306.81
2018-11-11T12:25:53.525Z,100311.97
2018-11-11T12:28:22.437Z,100316.84
2018-11-11T12:30:51.399Z,100307.61
2018-11-11T12:33:20.279Z,100326.02
2018-11-11T12:35:49.177Z,100321.44
2018-11-11T12:38:37.930Z,100325.50
2018-11-11T12:41:06.950Z,100324.66
2018-11-11T12:43:35.969Z,100329.55
2018-11-11T12:46:04.861Z,100324.93
2018-11-11T12:48:51.920Z,100330.31
2018-11-11T12:51:20.768Z,100322.09
2018-11-11T12:53:49.657Z,100320.12
2018-11-11T12:56:18.585Z,100327.40
2018-11-11T12:58:47.522Z,100326.26
2018-11-11T13:01:16.506Z,100326.72
2018-11-11T13:03:45.537Z,100334.27
2018-11-11T13:06:17.371Z,100333.61
2018-11-11T13:08:46.359Z,100338.15
2018-11-11T13:11:21.053Z,100334.58
2018-11-11T13:13:50.047Z,100344.48
2018-11-11T13:16:18.992Z,100341.39
2018-11-11T13:18:48.024Z,100339.21
2018-11-11T13:21:16.935Z,100338.82
2018-11-11T13:23:45.859Z,100339.08
2018-11-11T13:26:14.881Z,100336.60
2018-11-11T13:28:44.363Z,100335.25
2018-11-11T13:31:13.410Z,100354.19
2018-11-11T13:33:42.425Z,100355.42
2018-11-11T13:36:11.327Z,100362.73
2018-11-11T13:38:42.326Z,100360.11
2018-11-11T13:41:12.270Z,100355.45
2018-11-11T13:43:42.331Z,100356.53
2018-11-11T13:46:25.264Z,100356.22
2018-11-11T13:49:00.113Z,100361.73
2018-11-11T13:51:41.893Z,100359.77
2018-11-11T13:54:11.089Z,100359.13
2018-11-11T13:59:39.373Z,100349.32
2018-11-11T14:02:19.324Z,100346.20
2018-11-11T14:04:55.167Z,100353.16
2018-11-11T14:07:24.257Z,100350.69
2018-11-11T14:09:54.263Z,100351.97
2018-11-11T14:12:30.390Z,100348.72
2018-11-11T14:15:01.343Z,100360.53
2018-11-11T14:17:30.424Z,100355.55
2018-11-11T14:20:00.674Z,100372.59
2018-11-11T14:22:31.781Z,100386.12
2018-11-11T14:25:01.798Z,100390.72
2018-11-11T14:27:31.284Z,100384.05
2018-11-11T14:30:01.271Z,100388.17
2018-11-11T14:32:33.895Z,100391.72
2018-11-11T14:35:02.881Z,100397.58
2018-11-11T14:37:35.845Z,100403.59
2018-11-11T14:40:18.754Z,100424.33
2018-11-11T14:42:52.081Z,100415.98
2018-11-11T14:45:22.592Z,100403.82
2018-11-11T14:47:58.676Z,100397.55
2018-11-11T14:50:31.756Z,100386.18
2018-11-11T14:53:00.849Z,100386.95
2018-11-11T14:55:35.573Z,100409.93
2018-11-11T15:01:18.994Z,100381.61
2018-11-11T15:03:54.386Z,100385.73
2018-11-11T15:06:27.601Z,100383.77
2018-11-11T15:09:17.206Z,100377.08
2018-11-11T15:11:46.158Z,100383.05
2018-11-11T15:14:19.672Z,100386.78
2018-11-11T15:16:49.817Z,100381.60
2018-11-11T15:19:26.106Z,100372.47
2018-11-11T15:22:04.751Z,100383.28
2018-11-11T15:24:34.273Z,100376.88
2018-11-11T15:27:04.566Z,100388.98
2018-11-11T15:29:33.485Z,100398.98
2018-11-11T15:32:17.266Z,100397.27
2018-11-11T15:35:05.147Z,100399.39
2018-11-11T15:37:34.155Z,100404.14
2018-11-11T15:40:10.288Z,100410.86
2018-11-11T15:42:39.558Z,100417.36
2018-11-11T15:45:14.126Z,100419.69
2018-11-11T15:47:43.511Z,100431.19
2018-11-11T15:50:20.681Z,100428.23
2018-11-11T15:52:59.236Z,100428.70
2018-11-11T15:55:29.528Z,100427.89
2018-11-11T15:57:59.746Z,100437.78
2018-11-11T16:00:33.163Z,100433.47
2018-11-11T16:03:03.092Z,100436.35
2018-11-11T16:05:32.079Z,100439.05
2018-11-11T16:08:11.103Z,100426.68
2018-11-11T16:10:58.304Z,100430.36
2018-11-11T16:13:28.240Z,100427.62
2018-11-11T16:16:03.365Z,100430.78
2018-11-11T16:18:32.381Z,100425.20
2018-11-11T16:21:17.620Z,100424.95
2018-11-11T16:23:52.083Z,100424.95
2018-11-11T16:26:30.878Z,100427.03
2018-11-11T16:29:00.874Z,100432.00
2018-11-11T16:31:36.419Z,100433.98
2018-11-11T16:34:12.214Z,100437.48
2018-11-11T16:36:46.913Z,100436.56
2018-11-11T16:39:22.531Z,100434.88
2018-11-11T16:41:51.439Z,100429.60
2018-11-11T16:44:21.419Z,100433.44
2018-11-11T16:46:55.673Z,100429.34
2018-11-11T16:49:25.590Z,100429.60
2018-11-11T16:52:02.177Z,100426.72
2018-11-11T16:54:31.051Z,100433.95
2018-11-11T16:57:05.906Z,100442.42
2018-11-11T16:59:35.962Z,100432.38
2018-11-11T17:02:05.108Z,100435.30
2018-11-11T17:04:34.014Z,100429.34
2018-11-11T17:07:02.910Z,100445.89
2018-11-11T17:09:35.930Z,100437.78
2018-11-11T17:12:17.708Z,100440.39
2018-11-11T17:14:46.736Z,100450.86
2018-11-11T17:17:19.650Z,100450.56
2018-11-11T17:19:58.774Z,100456.22
2018-11-11T17:22:31.267Z,100463.27
2018-11-11T17:25:03.843Z,100459.77
2018-11-11T17:27:37.828Z,100467.74
2018-11-11T17:30:19.730Z,100466.89
2018-11-11T17:32:52.926Z,100465.62
2018-11-11T17:35:21.933Z,100474.06
2018-11-11T17:37:56.851Z,100477.94
2018-11-11T17:40:32.410Z,100484.98
2018-11-11T17:43:07.188Z,100504.42
2018-11-11T17:45:36.267Z,100503.62
2018-11-11T17:48:05.586Z,100513.11
2018-11-11T17:50:34.736Z,100507.53
2018-11-11T17:53:08.744Z,100504.45
2018-11-11T17:55:47.716Z,100501.30
2018-11-11T17:58:30.987Z,100498.73
2018-11-11T18:01:01.167Z,100504.75
2018-11-11T18:03:40.734Z,100500.15
2018-11-11T18:06:14.239Z,100500.70
2018-11-11T18:08:45.248Z,100500.25
2018-11-11T18:11:19.082Z,100496.41
2018-11-11T18:14:11.266Z,100500.33
2018-11-11T18:16:40.164Z,100498.98
2018-11-11T18:19:12.950Z,100503.91
2018-11-11T18:21:53.638Z,100513.46
2018-11-11T18:24:24.596Z,100503.41
2018-11-11T18:26:53.900Z,100493.41
2018-11-11T18:29:22.777Z,100467.96
2018-11-11T18:31:51.892Z,100472.81
2018-11-11T18:34:26.475Z,100465.55
2018-11-11T18:36:55.588Z,100463.95
2018-11-11T18:39:28.598Z,100508.89
2018-11-11T18:41:57.592Z,100557.34
2018-11-11T18:44:31.500Z,100535.07
2018-11-11T18:47:01.481Z,100520.17
2018-11-11T18:49:37.099Z,100525.64
2018-11-11T18:52:29.316Z,100524.75
2018-11-11T18:55:04.112Z,100549.22
2018-11-11T18:57:33.367Z,100576.81
2018-11-11T19:00:03.308Z,100587.33
2018-11-11T19:02:32.265Z,100587.47
2018-11-11T19:05:02.387Z,100583.77
2018-11-11T19:07:32.304Z,100581.83
2018-11-11T19:10:07.617Z,100582.27
2018-11-11T19:12:36.464Z,100582.69
2018-11-11T19:15:07.619Z,100593.88
2018-11-11T19:17:43.267Z,100604.28
2018-11-11T19:20:14.566Z,100609.98
2018-11-11T19:22:43.501Z,100612.98
2018-11-11T19:25:25.164Z,100611.62
2018-11-11T19:27:54.880Z,100611.67
2018-11-11T19:30:25.555Z,100601.02
2018-11-11T19:33:04.979Z,100611.28
2018-11-11T19:35:33.930Z,100624.69
2018-11-11T19:38:02.903Z,100620.48
2018-11-11T19:40:36.202Z,100612.44
2018-11-11T19:43:06.240Z,100624.29
2018-11-11T19:45:36.199Z,100630.48
2018-11-11T19:48:06.621Z,100642.76
2018-11-11T19:50:36.682Z,100652.15
2018-11-11T19:53:05.867Z,100656.95
2018-11-11T19:55:35.919Z,100619.11
2018-11-11T19:58:06.143Z,100605.38
2018-11-11T20:00:35.167Z,100604.62
2018-11-11T20:03:04.659Z,100609.18
2018-11-11T20:05:34.732Z,100612.48
2018-11-11T20:08:10.095Z,100623.81
2018-11-11T20:10:49.160Z,100652.17
2018-11-11T20:13:25.111Z,100667.88
2018-11-11T20:16:01.796Z,100680.22
2018-11-11T20:18:30.864Z,100690.52
2018-11-11T20:21:03.049Z,100691.33
2018-11-11T20:23:34.058Z,100700.02
2018-11-11T20:26:06.160Z,100690.08
2018-11-11T20:28:37.218Z,100695.81
2018-11-11T20:31:06.253Z,100701.77
2018-11-11T20:33:35.159Z,100704.02
2018-11-11T20:36:10.356Z,100708.32
2018-11-11T20:38:39.397Z,100714.32
2018-11-11T20:41:12.931Z,100725.06
2018-11-11T20:43:43.458Z,100734.04
2018-11-11T20:46:16.316Z,100726.99
2018-11-11T20:48:47.335Z,100724.83
2018-11-11T20:51:26.252Z,100723.66
2018-11-11T20:54:13.550Z,100723.48
2018-11-11T20:56:48.001Z,100715.09
2018-11-11T20:59:24.555Z,100721.65
2018-11-11T21:01:59.983Z,100708.21
2018-11-11T21:04:29.435Z,100727.17
2018-11-11T21:07:04.253Z,100724.83
2018-11-11T21:09:55.753Z,100719.50
2018-11-11T21:12:25.795Z,100725.23
2018-11-11T21:15:08.612Z,100721.25
2018-11-11T21:17:38.559Z,100725.63
2018-11-11T21:20:09.344Z,100729.99
2018-11-11T21:22:38.503Z,100735.45
2018-11-11T21:25:08.180Z,100738.22
2018-11-11T21:27:55.357Z,100740.14
2018-11-11T21:30:29.516Z,100737.80
2018-11-11T21:33:03.885Z,100734.23
2018-11-11T21:35:35.858Z,100739.57
2018-11-11T21:38:21.180Z,100744.97
2018-11-11T21:40:54.051Z,100746.94
2018-11-11T21:43:27.059Z,100757.16
2018-11-11T21:45:57.234Z,100763.16
2018-11-11T21:48:26.201Z,100756.67
2018-11-11T21:50:55.228Z,100754.12
2018-11-11T21:53:32.098Z,100766.00
2018-11-11T21:56:18.596Z,100771.10
2018-11-11T21:58:53.784Z,100764.77
2018-11-11T22:01:23.793Z,100768.33
2018-11-11T22:03:52.817Z,100770.97
2018-11-11T22:06:25.105Z,100760.45
2018-11-11T22:08:57.954Z,100765.56
2018-11-11T22:11:26.984Z,100775.94
2018-11-11T22:14:01.555Z,100763.25
2018-11-11T22:16:34.620Z,100772.76
2018-11-11T22:19:16.457Z,100789.70
2018-11-11T22:21:45.644Z,100798.16
2018-11-11T22:24:18.658Z,100800.10
2018-11-11T22:26:54.935Z,100802.69
2018-11-11T22:29:28.036Z,100802.45
2018-11-11T22:35:02.242Z,100823.34
2018-11-11T22:37:32.148Z,100830.79
2018-11-11T22:40:08.064Z,100828.15
2018-11-11T22:42:48.007Z,100830.42
2018-11-11T22:45:16.981Z,100838.69
2018-11-11T22:47:46.068Z,100843.91
2018-11-11T22:50:17.055Z,100835.12
2018-11-11T22:55:51.132Z,100845.92
2018-11-11T22:58:22.371Z,100838.62
2018-11-11T23:01:03.425Z,100839.99
2018-11-11T23:03:32.600Z,100838.33
2018-11-11T23:06:02.583Z,100836.77
2018-11-11T23:08:33.743Z,100842.92
2018-11-11T23:11:13.100Z,100842.12
2018-11-11T23:13:43.022Z,100852.23
2018-11-11T23:16:22.690Z,100866.33
2018-11-11T23:18:53.904Z,100869.73
2018-11-11T23:21:22.932Z,100858.25
2018-11-11T23:23:51.820Z,100850.84
2018-11-11T23:26:21.752Z,100852.62
2018-11-11T23:28:56.218Z,100852.58
2018-11-11T23:31:43.868Z,100838.83
2018-11-11T23:34:14.040Z,100838.59
2018-11-11T23:39:41.312Z,100858.60
2018-11-11T23:42:11.416Z,100853.80
2018-11-11T23:44:40.569Z,100849.18
2018-11-11T23:47:09.579Z,100852.39
2018-11-11T23:49:38.480Z,100850.52
2018-11-11T23:52:07.695Z,100847.56
2018-11-11T23:54:36.928Z,100854.02
2018-11-11T23:57:05.926Z,100857.80
2018-11-11T23:59:37.057Z,100849.70
